createdAt,value
2018-11-11T00:00:11.780Z,10.72
2018-11-11T00:02:40.670Z,12.15
2018-11-11T00:05:10.632Z,12.00
2018-11-11T00:07:39.705Z,11.10
2018-11-11T00:10:08.648Z,12.15
2018-11-11T00:12:37.794Z,11.40
2018-11-11T00:15:08.380Z,9.83
2018-11-11T00:17:37.223Z,9.60
2018-11-11T00:20:07.175Z,10.80
2018-11-11T00:22:36.049Z,9.98
2018-11-11T00:25:05.219Z,10.65
2018-11-11T00:27:34.265Z,10.88
2018-11-11T00:30:03.076Z,9.80
2018-11-11T00:32:31.928Z,12.05
2018-11-11T00:35:00.721Z,10.23
2018-11-11T00:37:29.617Z,9.73
2018-11-11T00:39:58.380Z,8.58
2018-11-11T00:42:27.179Z,11.83
2018-11-11T00:44:55.969Z,10.35
2018-11-11T00:47:24.722Z,12.33
2018-11-11T00:49:53.496Z,9.40
2018-11-11T00:52:22.288Z,11.15
2018-11-11T00:54:51.115Z,11.08
2018-11-11T00:57:19.975Z,8.88
2018-11-11T00:59:47.700Z,9.33
2018-11-11T01:02:16.573Z,10.78
2018-11-11T01:04:45.339Z,11.68
2018-11-11T01:07:14.345Z,10.20
2018-11-11T01:09:43.089Z,8.68
2018-11-11T01:12:11.916Z,10.10
2018-11-11T01:14:40.732Z,9.70
2018-11-11T01:17:10.037Z,10.05
2018-11-11T01:19:38.830Z,9.45
2018-11-11T01:22:07.726Z,10.58
2018-11-11T01:24:36.449Z,8.00
2018-11-11T01:27:05.291Z,10.50
2018-11-11T01:29:33.981Z,9.18
2018-11-11T01:32:02.725Z,8.65
2018-11-11T01:34:31.564Z,10.63
2018-11-11T01:37:00.344Z,9.45
2018-11-11T01:39:29.131Z,8.70
2018-11-11T01:41:57.897Z,10.88
2018-11-11T01:44:26.777Z,10.00
2018-11-11T01:46:55.535Z,10.40
2018-11-11T01:49:24.289Z,10.50
2018-11-11T01:51:53.058Z,9.35
2018-11-11T01:54:21.800Z,9.93
2018-11-11T01:56:50.578Z,9.68
2018-11-11T01:59:19.386Z,8.30
2018-11-11T02:01:48.202Z,9.13
2018-11-11T02:04:16.948Z,9.55
2018-11-11T02:06:45.688Z,8.70
2018-11-11T02:09:14.578Z,9.50
2018-11-11T02:11:43.380Z,9.95
2018-11-11T02:14:12.126Z,7.35
2018-11-11T02:16:40.901Z,8.55
2018-11-11T02:19:09.645Z,10.88
2018-11-11T02:21:38.581Z,8.80
2018-11-11T02:24:07.274Z,9.60
2018-11-11T02:26:36.035Z,9.55
2018-11-11T02:29:05.042Z,9.23
2018-11-11T02:31:33.793Z,7.53
2018-11-11T02:34:02.606Z,7.97
2018-11-11T02:36:31.362Z,9.70
2018-11-11T02:39:00.106Z,7.47
2018-11-11T02:41:28.813Z,8.05
2018-11-11T02:43:57.534Z,9.60
2018-11-11T02:46:26.341Z,9.53
2018-11-11T02:48:55.090Z,8.55
2018-11-11T02:51:23.809Z,9.40
2018-11-11T02:53:52.577Z,8.53
2018-11-11T02:56:21.276Z,7.42
2018-11-11T02:58:50.066Z,8.38
2018-11-11T03:01:18.828Z,8.35
2018-11-11T03:03:47.512Z,8.38
2018-11-11T03:06:16.277Z,8.45
2018-11-11T03:08:45.078Z,7.62
2018-11-11T03:11:13.838Z,8.23
2018-11-11T03:13:42.604Z,8.50
2018-11-11T03:16:11.313Z,8.40
2018-11-11T03:18:40.118Z,7.15
2018-11-11T03:21:08.930Z,8.95
2018-11-11T03:23:37.675Z,9.55
2018-11-11T03:26:06.796Z,8.15
2018-11-11T03:28:35.564Z,9.25
2018-11-11T03:31:04.458Z,7.47
2018-11-11T03:33:33.211Z,7.75
2018-11-11T03:36:01.942Z,7.03
2018-11-11T03:38:30.991Z,8.68
2018-11-11T03:40:59.838Z,10.20
2018-11-11T03:43:28.549Z,8.40
2018-11-11T03:45:57.314Z,9.18
2018-11-11T03:48:26.026Z,7.80
2018-11-11T03:50:54.818Z,8.65
2018-11-11T03:53:23.694Z,7.83
2018-11-11T03:55:52.444Z,7.75
2018-11-11T03:58:21.216Z,9.45
2018-11-11T04:00:49.969Z,9.28
2018-11-11T04:03:18.765Z,7.55
2018-11-11T04:05:47.529Z,7.85
2018-11-11T04:08:16.334Z,8.85
2018-11-11T04:10:45.150Z,8.53
2018-11-11T04:13:13.848Z,7.62
2018-11-11T04:15:42.603Z,8.55
2018-11-11T04:18:11.387Z,8.40
2018-11-11T04:20:40.185Z,7.87
2018-11-11T04:23:08.939Z,8.15
2018-11-11T04:25:37.760Z,9.00
2018-11-11T04:28:06.586Z,9.85
2018-11-11T04:30:35.417Z,9.03
2018-11-11T04:33:04.156Z,10.58
2018-11-11T04:35:32.979Z,8.05
2018-11-11T04:38:01.864Z,9.70
2018-11-11T04:40:30.600Z,9.45
2018-11-11T04:42:59.354Z,8.43
2018-11-11T04:45:28.119Z,8.40
2018-11-11T04:47:56.926Z,9.43
2018-11-11T04:50:25.727Z,8.70
2018-11-11T04:52:54.528Z,9.68
2018-11-11T04:55:23.307Z,9.35
2018-11-11T04:57:52.012Z,10.00
2018-11-11T05:00:20.776Z,7.50
2018-11-11T05:02:49.524Z,8.53
2018-11-11T05:05:18.273Z,8.35
2018-11-11T05:07:47.045Z,8.58
2018-11-11T05:10:15.985Z,10.43
2018-11-11T05:12:44.712Z,7.72
2018-11-11T05:15:14.391Z,7.28
2018-11-11T05:17:43.794Z,8.35
2018-11-11T05:20:13.522Z,9.90
2018-11-11T05:22:42.816Z,8.48
2018-11-11T05:25:12.749Z,8.13
2018-11-11T05:27:41.800Z,8.93
2018-11-11T05:30:11.826Z,9.30
2018-11-11T05:32:40.813Z,7.80
2018-11-11T05:35:10.690Z,8.55
2018-11-11T05:37:39.844Z,9.48
2018-11-11T05:40:09.644Z,7.80
2018-11-11T05:42:38.381Z,8.18
2018-11-11T05:45:08.449Z,9.58
2018-11-11T05:47:37.263Z,10.63
2018-11-11T05:50:07.340Z,8.48
2018-11-11T05:52:36.061Z,8.75
2018-11-11T05:55:05.005Z,9.78
2018-11-11T05:57:33.720Z,9.10
2018-11-11T06:00:02.576Z,9.23
2018-11-11T06:02:31.383Z,8.85
2018-11-11T06:05:00.164Z,9.35
2018-11-11T06:07:28.915Z,9.30
2018-11-11T06:09:57.741Z,10.45
2018-11-11T06:12:26.440Z,7.90
2018-11-11T06:14:55.162Z,9.03
2018-11-11T06:17:23.927Z,8.30
2018-11-11T06:19:52.762Z,11.38
2018-11-11T06:22:22.351Z,9.45
2018-11-11T06:24:51.737Z,9.95
2018-11-11T06:27:21.617Z,9.73
2018-11-11T06:29:50.424Z,10.72
2018-11-11T06:32:19.209Z,9.88
2018-11-11T06:34:47.999Z,10.15
2018-11-11T06:37:16.757Z,9.35
2018-11-11T06:39:45.565Z,10.43
2018-11-11T06:42:14.276Z,11.00
2018-11-11T06:44:43.064Z,9.63
2018-11-11T06:47:11.864Z,9.20
2018-11-11T06:49:40.625Z,8.48
2018-11-11T06:52:09.361Z,10.85
2018-11-11T06:54:38.114Z,9.78
2018-11-11T06:57:06.896Z,10.35
2018-11-11T06:59:35.676Z,11.15
2018-11-11T07:02:04.462Z,9.68
2018-11-11T07:04:33.190Z,10.90
2018-11-11T07:07:01.979Z,12.53
2018-11-11T07:09:30.688Z,11.33
2018-11-11T07:11:59.458Z,11.73
2018-11-11T07:14:28.247Z,10.30
2018-11-11T07:16:57.024Z,12.68
2018-11-11T07:19:25.878Z,11.40
2018-11-11T07:21:54.558Z,11.95
2018-11-11T07:24:23.375Z,12.88
2018-11-11T07:26:52.140Z,10.90
2018-11-11T07:29:20.952Z,11.45
2018-11-11T07:31:49.820Z,12.00
2018-11-11T07:34:18.565Z,10.25
2018-11-11T07:36:47.832Z,12.95
2018-11-11T07:39:17.163Z,12.15
2018-11-11T07:41:45.933Z,13.13
2018-11-11T07:44:14.690Z,11.50
2018-11-11T07:46:43.494Z,12.55
2018-11-11T07:49:12.227Z,13.00
2018-11-11T07:51:41.039Z,11.15
2018-11-11T07:54:09.882Z,11.73
2018-11-11T07:56:38.628Z,11.05
2018-11-11T07:59:07.468Z,10.78
2018-11-11T08:01:36.288Z,11.48
2018-11-11T08:04:05.230Z,12.23
2018-11-11T08:06:33.960Z,11.30
2018-11-11T08:09:02.713Z,11.35
2018-11-11T08:11:42.649Z,11.70
2018-11-11T08:14:11.380Z,11.53
2018-11-11T08:16:40.230Z,13.03
2018-11-11T08:19:08.978Z,11.73
2018-11-11T08:21:37.701Z,13.35
2018-11-11T08:24:06.826Z,10.08
2018-11-11T08:26:35.562Z,12.82
2018-11-11T08:29:05.269Z,10.78
2018-11-11T08:31:34.010Z,10.53
2018-11-11T08:34:02.784Z,11.55
2018-11-11T08:36:31.598Z,11.25
2018-11-11T08:39:00.817Z,11.50
2018-11-11T08:41:29.643Z,10.68
2018-11-11T08:43:58.415Z,9.38
2018-11-11T08:46:27.159Z,11.10
2018-11-11T08:48:55.942Z,11.33
2018-11-11T08:51:24.705Z,11.05
2018-11-11T08:53:53.489Z,9.98
2018-11-11T08:56:22.243Z,11.35
2018-11-11T08:58:51.011Z,11.73
2018-11-11T09:01:19.761Z,12.63
2018-11-11T09:03:48.495Z,10.98
2018-11-11T09:06:17.218Z,11.28
2018-11-11T09:08:46.084Z,12.28
2018-11-11T09:11:14.964Z,12.60
2018-11-11T09:13:43.738Z,11.50
2018-11-11T09:16:12.547Z,9.90
2018-11-11T09:18:41.458Z,11.35
2018-11-11T09:21:10.208Z,10.80
2018-11-11T09:23:38.974Z,9.73
2018-11-11T09:26:07.791Z,10.80
2018-11-11T09:28:36.622Z,9.48
2018-11-11T09:31:06.440Z,12.20
2018-11-11T09:33:35.268Z,8.88
2018-11-11T09:36:04.051Z,10.03
2018-11-11T09:38:32.831Z,10.00
2018-11-11T09:41:01.670Z,10.08
2018-11-11T09:43:30.404Z,11.73
2018-11-11T09:45:59.160Z,12.45
2018-11-11T09:48:28.010Z,10.15
2018-11-11T09:50:56.729Z,10.82
2018-11-11T09:53:25.940Z,11.05
2018-11-11T09:55:54.902Z,12.98
2018-11-11T09:58:23.744Z,12.03
2018-11-11T10:00:52.581Z,14.50
2018-11-11T10:03:39.872Z,21.02
2018-11-11T10:06:16.864Z,19.25
2018-11-11T10:08:51.428Z,20.32
2018-11-11T10:12:23.328Z,20.60
2018-11-11T10:15:28.631Z,19.27
2018-11-11T10:18:02.139Z,17.05
2018-11-11T10:20:37.790Z,23.62
2018-11-11T10:23:14.068Z,18.65
2018-11-11T10:25:53.746Z,20.85
2018-11-11T10:28:26.598Z,18.17
2018-11-11T10:32:00.506Z,22.60
2018-11-11T10:35:34.053Z,19.62
2018-11-11T10:38:14.039Z,21.17
2018-11-11T10:40:46.938Z,23.73
2018-11-11T10:43:29.827Z,26.68
2018-11-11T10:46:03.616Z,20.20
2018-11-11T10:48:35.629Z,19.85
2018-11-11T10:51:05.608Z,26.52
2018-11-11T10:53:34.414Z,23.10
2018-11-11T10:56:03.192Z,20.40
2018-11-11T10:58:31.948Z,22.58
2018-11-11T11:01:06.111Z,24.63
2018-11-11T11:03:36.320Z,25.60
2018-11-11T11:06:06.617Z,27.17
2018-11-11T11:08:35.561Z,28.20
2018-11-11T11:11:04.893Z,31.75
2018-11-11T11:13:33.925Z,31.52
2018-11-11T11:16:03.218Z,30.65
2018-11-11T11:18:31.923Z,23.60
2018-11-11T11:21:00.649Z,23.38
2018-11-11T11:23:29.480Z,31.85
2018-11-11T11:25:58.207Z,36.03
2018-11-11T11:28:27.018Z,27.07
2018-11-11T11:30:55.758Z,30.20
2018-11-11T11:33:24.544Z,31.52
2018-11-11T11:35:53.542Z,26.87
2018-11-11T11:38:22.378Z,26.87
2018-11-11T11:40:51.100Z,30.45
2018-11-11T11:43:19.820Z,30.82
2018-11-11T11:45:49.241Z,25.80
2018-11-11T11:48:18.026Z,26.55
2018-11-11T11:50:46.818Z,29.20
2018-11-11T11:53:15.663Z,29.30
2018-11-11T11:55:44.502Z,24.52
2018-11-11T11:58:26.349Z,32.28
2018-11-11T12:00:55.206Z,26.48
2018-11-11T12:03:24.023Z,27.87
2018-11-11T12:05:52.857Z,29.18
2018-11-11T12:08:21.661Z,34.27
2018-11-11T12:10:50.446Z,40.58
2018-11-11T12:13:19.691Z,31.50
2018-11-11T12:15:48.487Z,29.10
2018-11-11T12:18:17.285Z,36.40
2018-11-11T12:20:46.242Z,30.77
2018-11-11T12:23:15.107Z,31.82
2018-11-11T12:25:43.866Z,35.10
2018-11-11T12:28:12.803Z,36.42
2018-11-11T12:30:41.745Z,40.15
2018-11-11T12:33:10.525Z,36.33
2018-11-11T12:35:39.488Z,55.88
2018-11-11T12:38:08.427Z,42.25
2018-11-11T12:40:37.373Z,33.35
2018-11-11T12:43:06.184Z,34.08
2018-11-11T12:45:35.046Z,30.85
2018-11-11T12:48:03.829Z,39.13
2018-11-11T12:50:32.680Z,33.88
2018-11-11T12:53:01.507Z,31.70
2018-11-11T12:55:30.399Z,29.10
2018-11-11T12:57:59.277Z,30.25
2018-11-11T13:00:28.401Z,28.80
2018-11-11T13:02:57.207Z,29.45
2018-11-11T13:05:25.998Z,30.95
2018-11-11T13:07:54.887Z,29.48
2018-11-11T13:10:23.821Z,30.68
2018-11-11T13:12:52.606Z,27.67
2018-11-11T13:15:21.442Z,29.70
2018-11-11T13:17:50.379Z,25.82
2018-11-11T13:20:20.063Z,24.10
2018-11-11T13:22:48.908Z,23.62
2018-11-11T13:25:17.675Z,26.82
2018-11-11T13:27:46.860Z,24.23
2018-11-11T13:30:15.983Z,28.32
2018-11-11T13:32:45.130Z,25.20
2018-11-11T13:35:15.379Z,25.05
2018-11-11T13:37:44.316Z,25.10
2018-11-11T13:40:19.881Z,25.92
2018-11-11T13:42:48.820Z,22.82
2018-11-11T13:45:20.198Z,21.95
2018-11-11T13:47:49.714Z,24.50
2018-11-11T13:50:20.084Z,21.40
2018-11-11T13:52:49.245Z,21.30
2018-11-11T13:55:18.812Z,18.50
2018-11-11T13:57:48.104Z,19.02
2018-11-11T14:00:27.149Z,23.80
2018-11-11T14:02:56.193Z,19.32
2018-11-11T14:05:25.011Z,22.00
2018-11-11T14:07:53.836Z,20.60
2018-11-11T14:10:22.644Z,23.95
2018-11-11T14:12:51.439Z,19.32
2018-11-11T14:15:21.700Z,20.20
2018-11-11T14:17:50.716Z,19.65
2018-11-11T14:20:20.880Z,19.02
2018-11-11T14:22:50.551Z,18.20
2018-11-11T14:25:22.937Z,19.10
2018-11-11T14:27:51.843Z,23.87
2018-11-11T14:30:21.941Z,17.15
2018-11-11T14:32:51.684Z,17.70
2018-11-11T14:35:20.571Z,19.23
2018-11-11T14:37:49.685Z,34.10
2018-11-11T14:40:24.955Z,17.95
2018-11-11T14:42:54.178Z,15.18
2018-11-11T14:45:23.465Z,19.23
2018-11-11T14:47:53.483Z,19.85
2018-11-11T14:50:22.947Z,15.48
2018-11-11T14:52:51.887Z,14.78
2018-11-11T14:55:25.794Z,15.90
2018-11-11T14:57:54.710Z,17.20
2018-11-11T15:00:25.009Z,17.70
2018-11-11T15:03:04.561Z,18.98
2018-11-11T15:05:33.657Z,19.10
2018-11-11T15:08:03.303Z,15.30
2018-11-11T15:10:32.210Z,15.13
2018-11-11T15:13:01.103Z,13.80
2018-11-11T15:15:29.902Z,17.05
2018-11-11T15:17:59.687Z,19.10
2018-11-11T15:20:28.810Z,16.75
2018-11-11T15:22:57.513Z,17.27
2018-11-11T15:25:27.619Z,15.55
2018-11-11T15:27:56.450Z,14.50
2018-11-11T15:30:28.262Z,14.33
2018-11-11T15:32:57.732Z,14.65
2018-11-11T15:35:26.531Z,13.62
2018-11-11T15:37:55.294Z,15.43
2018-11-11T15:40:26.537Z,14.65
2018-11-11T15:42:55.759Z,15.30
2018-11-11T15:45:26.891Z,14.13
2018-11-11T15:47:55.675Z,14.20
2018-11-11T15:50:26.621Z,13.60
2018-11-11T15:52:56.754Z,13.45
2018-11-11T15:55:27.301Z,15.65
2018-11-11T15:57:56.114Z,14.05
2018-11-11T16:00:29.120Z,15.03
2018-11-11T16:02:57.973Z,15.98
2018-11-11T16:05:26.873Z,12.82
2018-11-11T16:07:56.505Z,15.90
2018-11-11T16:10:26.680Z,12.25
2018-11-11T16:12:55.526Z,14.50
2018-11-11T16:15:34.080Z,12.82
2018-11-11T16:18:04.843Z,18.75
2018-11-11T16:20:33.803Z,12.10
2018-11-11T16:23:03.632Z,17.05
2018-11-11T16:25:32.932Z,12.20
2018-11-11T16:28:01.814Z,12.07
2018-11-11T16:30:32.034Z,13.05
2018-11-11T16:33:01.438Z,14.18
2018-11-11T16:35:30.962Z,15.03
2018-11-11T16:38:00.418Z,12.70
2018-11-11T16:40:31.656Z,12.35
2018-11-11T16:43:00.825Z,12.73
2018-11-11T16:45:30.522Z,11.80
2018-11-11T16:47:59.426Z,12.60
2018-11-11T16:50:30.348Z,12.65
2018-11-11T16:53:00.855Z,11.20
2018-11-11T16:55:30.751Z,13.40
2018-11-11T16:57:59.568Z,12.82
2018-11-11T17:00:29.696Z,13.75
2018-11-11T17:02:59.556Z,17.50
2018-11-11T17:05:30.557Z,25.00
2018-11-11T17:07:59.399Z,18.10
2018-11-11T17:10:29.455Z,17.20
2018-11-11T17:12:59.696Z,27.10
2018-11-11T17:15:29.894Z,17.07
2018-11-11T17:17:58.753Z,12.50
2018-11-11T17:20:28.192Z,15.28
2018-11-11T17:22:59.431Z,14.95
2018-11-11T17:25:28.639Z,11.63
2018-11-11T17:27:57.689Z,15.03
2018-11-11T17:30:28.586Z,12.43
2018-11-11T17:32:58.084Z,15.83
2018-11-11T17:35:26.944Z,13.13
2018-11-11T17:37:55.791Z,12.15
2018-11-11T17:40:26.011Z,11.50
2018-11-11T17:42:56.206Z,11.95
2018-11-11T17:45:25.117Z,10.58
2018-11-11T17:47:54.539Z,14.73
2018-11-11T17:50:24.858Z,13.30
2018-11-11T17:52:54.069Z,12.95
2018-11-11T17:55:24.561Z,11.00
2018-11-11T17:57:53.593Z,10.70
2018-11-11T18:00:24.152Z,10.10
2018-11-11T18:02:53.898Z,11.75
2018-11-11T18:05:24.185Z,10.68
2018-11-11T18:07:53.145Z,11.20
2018-11-11T18:10:23.009Z,10.30
2018-11-11T18:12:52.165Z,8.60
2018-11-11T18:15:22.889Z,11.95
2018-11-11T18:17:51.832Z,9.53
2018-11-11T18:20:23.036Z,9.53
2018-11-11T18:22:54.730Z,9.05
2018-11-11T18:25:23.736Z,8.93
2018-11-11T18:27:52.825Z,9.05
2018-11-11T18:30:25.656Z,10.30
2018-11-11T18:32:55.938Z,10.68
2018-11-11T18:35:25.128Z,9.08
2018-11-11T18:37:54.226Z,8.98
2018-11-11T18:40:24.802Z,9.13
2018-11-11T18:42:54.766Z,9.13
2018-11-11T18:45:25.155Z,9.08
2018-11-11T18:47:54.672Z,10.10
2018-11-11T18:50:25.241Z,11.15
2018-11-11T18:52:54.972Z,9.78
2018-11-11T18:55:23.895Z,9.48
2018-11-11T18:57:52.907Z,8.68
2018-11-11T19:00:23.196Z,9.40
2018-11-11T19:02:53.062Z,9.60
2018-11-11T19:05:22.741Z,11.60
2018-11-11T19:07:51.919Z,9.83
2018-11-11T19:10:24.558Z,9.95
2018-11-11T19:12:55.046Z,10.95
2018-11-11T19:15:24.312Z,9.63
2018-11-11T19:17:54.175Z,9.58
2018-11-11T19:20:24.275Z,10.18
2018-11-11T19:22:53.202Z,9.98
2018-11-11T19:25:24.533Z,10.70
2018-11-11T19:27:54.268Z,8.73
2018-11-11T19:30:24.449Z,11.12
2018-11-11T19:32:54.411Z,9.05
2018-11-11T19:35:23.667Z,10.13
2018-11-11T19:37:54.463Z,9.15
2018-11-11T19:40:24.775Z,9.55
2018-11-11T19:42:54.822Z,9.15
2018-11-11T19:45:25.234Z,10.40
2018-11-11T19:47:54.204Z,10.58
2018-11-11T19:50:24.310Z,10.48
2018-11-11T19:52:54.159Z,9.03
2018-11-11T19:55:23.425Z,10.03
2018-11-11T19:57:52.369Z,9.80
2018-11-11T20:00:24.402Z,9.85
2018-11-11T20:02:54.890Z,10.58
2018-11-11T20:05:24.054Z,9.98
2018-11-11T20:07:54.374Z,9.53
2018-11-11T20:10:24.330Z,10.25
2018-11-11T20:12:53.349Z,10.45
2018-11-11T20:15:25.841Z,9.33
2018-11-11T20:17:54.839Z,8.88
2018-11-11T20:20:25.284Z,10.88
2018-11-11T20:22:54.192Z,9.23
2018-11-11T20:25:23.429Z,9.28
2018-11-11T20:27:52.346Z,9.78
2018-11-11T20:30:22.654Z,9.20
2018-11-11T20:32:51.848Z,8.80
2018-11-11T20:35:22.200Z,9.80
2018-11-11T20:37:51.183Z,9.10
2018-11-11T20:40:21.448Z,10.95
2018-11-11T20:42:50.915Z,10.20
2018-11-11T20:45:21.285Z,9.75
2018-11-11T20:47:50.841Z,8.40
2018-11-11T20:50:22.078Z,9.43
2018-11-11T20:52:52.653Z,8.90
2018-11-11T20:55:22.105Z,9.65
2018-11-11T20:57:51.049Z,11.57
2018-11-11T21:00:22.536Z,7.90
2018-11-11T21:02:51.625Z,9.13
2018-11-11T21:05:22.248Z,9.03
2018-11-11T21:07:51.208Z,8.75
2018-11-11T21:10:21.470Z,9.83
2018-11-11T21:12:50.465Z,9.35
2018-11-11T21:15:20.633Z,9.23
2018-11-11T21:17:49.775Z,9.05
2018-11-11T21:20:20.166Z,10.32
2018-11-11T21:22:49.131Z,9.03
2018-11-11T21:25:18.074Z,9.20
2018-11-11T21:27:47.993Z,12.75
2018-11-11T21:30:19.363Z,11.68
2018-11-11T21:32:48.558Z,10.43
2018-11-11T21:35:17.619Z,16.73
2018-11-11T21:37:46.970Z,13.70
2018-11-11T21:40:20.728Z,14.30
2018-11-11T21:42:50.716Z,15.70
2018-11-11T21:45:20.960Z,13.55
2018-11-11T21:47:50.002Z,11.83
2018-11-11T21:50:21.097Z,8.90
2018-11-11T21:53:09.870Z,8.85
2018-11-11T21:55:38.752Z,13.35
2018-11-11T21:58:07.644Z,9.53
2018-11-11T22:00:36.655Z,8.38
2018-11-11T22:03:06.746Z,9.85
2018-11-11T22:05:35.647Z,9.18
2018-11-11T22:08:04.584Z,7.67
2018-11-11T22:10:33.424Z,8.00
2018-11-11T22:13:02.319Z,8.60
2018-11-11T22:15:31.217Z,7.95
2018-11-11T22:17:59.988Z,9.95
2018-11-11T22:20:28.880Z,9.00
2018-11-11T22:22:57.687Z,10.40
2018-11-11T22:25:27.133Z,11.65
2018-11-11T22:27:55.983Z,14.05
2018-11-11T22:30:24.841Z,7.67
2018-11-11T22:32:54.074Z,8.45
2018-11-11T22:35:22.939Z,11.97
2018-11-11T22:37:51.926Z,8.80
2018-11-11T22:40:20.893Z,12.03
2018-11-11T22:42:49.755Z,8.65
2018-11-11T22:45:18.540Z,6.33
2018-11-11T22:47:47.398Z,7.15
2018-11-11T22:50:17.954Z,7.50
2018-11-11T22:52:46.894Z,23.40
2018-11-11T22:55:15.777Z,6.87
2018-11-11T22:57:44.873Z,7.25
2018-11-11T23:00:20.505Z,7.20
2018-11-11T23:02:49.640Z,6.45
2018-11-11T23:05:19.535Z,6.53
2018-11-11T23:07:48.451Z,9.93
2018-11-11T23:10:17.332Z,8.98
2018-11-11T23:12:46.178Z,6.75
2018-11-11T23:15:16.342Z,9.10
2018-11-11T23:17:45.151Z,7.90
2018-11-11T23:20:15.530Z,9.60
2018-11-11T23:22:44.369Z,9.18
2018-11-11T23:25:14.548Z,6.33
2018-11-11T23:27:43.389Z,9.33
2018-11-11T23:30:15.007Z,6.67
2018-11-11T23:32:44.154Z,7.22
2018-11-11T23:36:17.018Z,7.20
2018-11-11T23:38:46.720Z,6.95
2018-11-11T23:41:15.585Z,6.30
2018-11-11T23:43:44.346Z,5.35
2018-11-11T23:46:13.115Z,5.62
2018-11-11T23:48:41.953Z,6.25
2018-11-11T23:51:10.876Z,6.05
2018-11-11T23:53:39.657Z,6.58
2018-11-11T23:56:08.430Z,5.70
2018-11-11T23:58:37.332Z,6.45
